Time;durP1;ratioP1;P1;durP2;ratioP2;P2;SDS_P1;SDS_P2;PMS_P1;PMS_P2;Temp;Humidity;BMP_temperature;BMP_pressure;BME280_temperature;BME280_humidity;BME280_pressure;Samples;Min_cycle;Max_cycle;Signal;HPM_P1;HPM_P2
2022/04/02 00:01:58;;;;;;;9.00;3.45;;;1.10;99.90;;;;;;4958917;29;20122;-57
2022/04/02 00:04:24;;;;;;;9.10;4.35;;;1.10;99.90;;;;;;4959856;29;20083;-57
2022/04/02 00:06:50;;;;;;;8.77;3.55;;;1.10;99.90;;;;;;4960991;28;20044;-57
2022/04/02 00:09:16;;;;;;;8.57;4.22;;;1.10;99.90;;;;;;4960589;28;20070;-58
2022/04/02 00:11:41;;;;;;;9.13;3.40;;;1.00;99.90;;;;;;4959973;29;20043;-57
2022/04/02 00:14:07;;;;;;;8.13;3.42;;;1.00;99.90;;;;;;4958828;29;20110;-57
2022/04/02 00:16:33;;;;;;;8.35;3.72;;;1.00;99.90;;;;;;4961269;29;20098;-57
2022/04/02 00:18:58;;;;;;;7.05;3.20;;;1.00;99.90;;;;;;4960174;28;20074;-57
2022/04/02 00:21:24;;;;;;;8.38;3.60;;;1.10;99.90;;;;;;4961183;29;20055;-57
2022/04/02 00:23:50;;;;;;;8.38;3.58;;;1.00;99.90;;;;;;4960644;29;20039;-57
2022/04/02 00:26:21;;;;;;;8.73;3.40;;;1.00;99.90;;;;;;4960390;29;20062;-57
2022/04/02 00:28:49;;;;;;;11.05;3.97;;;1.00;99.90;;;;;;4961177;28;20039;-57
2022/04/02 00:31:16;;;;;;;9.38;3.92;;;1.00;99.90;;;;;;4959910;28;20050;-57
2022/04/02 00:33:44;;;;;;;9.57;3.67;;;1.00;99.90;;;;;;4961241;28;20043;-57
2022/04/02 00:36:10;;;;;;;7.53;3.28;;;1.00;99.90;;;;;;4960115;28;20400;-57
2022/04/02 00:38:37;;;;;;;9.07;3.90;;;0.90;99.90;;;;;;4961075;29;20075;-57
2022/04/02 00:41:03;;;;;;;8.18;3.40;;;0.90;99.90;;;;;;4958826;28;20326;-57
2022/04/02 00:43:38;;;;;;;12.38;3.30;;;0.90;99.90;;;;;;4960272;28;20140;-57
2022/04/02 00:46:06;;;;;;;9.43;3.10;;;1.00;99.90;;;;;;4959414;29;20531;-57
2022/04/02 00:48:32;;;;;;;7.30;3.45;;;1.00;99.90;;;;;;4959809;28;20061;-57
2022/04/02 00:51:00;;;;;;;7.97;3.60;;;0.90;99.90;;;;;;4961089;28;20079;-57
2022/04/02 00:53:31;;;;;;;7.13;3.40;;;0.90;99.90;;;;;;4959796;28;20043;-57
2022/04/02 00:55:58;;;;;;;7.32;2.85;;;0.90;99.90;;;;;;4960758;28;20422;-57
2022/04/02 00:58:23;;;;;;;11.75;2.95;;;0.90;99.90;;;;;;4959404;29;20059;-57
2022/04/02 01:00:49;;;;;;;9.23;3.40;;;0.90;99.90;;;;;;4959589;29;20043;-58
2022/04/02 01:03:16;;;;;;;8.43;3.20;;;0.90;99.90;;;;;;4960979;29;20040;-57
2022/04/02 01:05:44;;;;;;;8.32;3.33;;;0.90;99.90;;;;;;4959515;29;20062;-57
2022/04/02 01:08:10;;;;;;;7.10;3.10;;;1.00;99.90;;;;;;4961333;28;20052;-57
2022/04/02 01:10:39;;;;;;;9.25;3.00;;;0.90;99.90;;;;;;4962437;29;20049;-58
2022/04/02 01:13:05;;;;;;;5.95;2.60;;;0.90;99.90;;;;;;4946378;29;20491;-58
2022/04/02 01:15:31;;;;;;;7.18;2.65;;;1.00;99.90;;;;;;4964350;28;20372;-57
2022/04/02 01:17:57;;;;;;;7.88;3.08;;;0.90;99.90;;;;;;4961697;29;20058;-57
2022/04/02 01:20:27;;;;;;;7.72;2.70;;;0.90;99.90;;;;;;4964604;29;20079;-57
2022/04/02 01:22:53;;;;;;;7.82;2.67;;;0.90;99.90;;;;;;4961682;29;20058;-57
2022/04/02 01:25:19;;;;;;;6.78;2.80;;;0.90;99.90;;;;;;4946949;29;20055;-57
2022/04/02 01:27:46;;;;;;;5.40;1.98;;;0.90;99.90;;;;;;4961898;28;20062;-57
2022/04/02 01:30:13;;;;;;;6.38;2.70;;;0.90;99.90;;;;;;4963746;29;20043;-57
2022/04/02 01:32:39;;;;;;;6.32;2.60;;;0.90;99.90;;;;;;4964064;29;20256;-57
2022/04/02 01:35:06;;;;;;;7.07;2.50;;;0.90;99.90;;;;;;4962966;29;20051;-57
2022/04/02 01:37:39;;;;;;;7.05;2.80;;;0.80;99.90;;;;;;4964247;28;20316;-58
2022/04/02 01:40:06;;;;;;;5.90;2.53;;;0.80;99.90;;;;;;4962580;29;20063;-57
2022/04/02 01:42:32;;;;;;;9.88;2.72;;;0.80;99.90;;;;;;4962491;29;20082;-57
2022/04/02 01:45:01;;;;;;;6.05;2.97;;;0.80;99.90;;;;;;4963164;29;20055;-57
2022/04/02 01:47:27;;;;;;;6.22;2.58;;;0.80;99.90;;;;;;4961591;29;20584;-58
2022/04/02 01:49:53;;;;;;;8.10;2.63;;;0.80;99.90;;;;;;4963527;29;20148;-58
2022/04/02 01:52:20;;;;;;;7.75;2.53;;;0.70;99.90;;;;;;4961280;28;20126;-57
2022/04/02 01:54:49;;;;;;;8.38;3.15;;;0.70;99.90;;;;;;4963952;29;20045;-57
2022/04/02 01:57:15;;;;;;;7.20;2.95;;;0.70;99.90;;;;;;4962535;29;20043;-57
2022/04/02 01:59:44;;;;;;;7.10;2.60;;;0.60;99.90;;;;;;4962420;29;20059;-57
2022/04/02 02:02:10;;;;;;;6.95;2.92;;;0.70;99.90;;;;;;4944926;29;20039;-58
2022/04/02 02:04:37;;;;;;;6.47;2.80;;;0.70;99.90;;;;;;4963031;29;20043;-57
2022/04/02 02:07:04;;;;;;;8.20;2.72;;;0.70;99.90;;;;;;4963347;28;20049;-57
2022/04/02 02:09:30;;;;;;;9.82;3.42;;;0.70;99.90;;;;;;4945049;29;20057;-57
2022/04/02 02:11:56;;;;;;;8.35;2.70;;;0.60;99.90;;;;;;4963808;28;20048;-57
2022/04/02 02:14:22;;;;;;;5.88;2.58;;;0.60;99.90;;;;;;4962310;28;20047;-57
2022/04/02 02:16:48;;;;;;;6.93;2.35;;;0.60;99.90;;;;;;4963242;28;20051;-58
2022/04/02 02:19:13;;;;;;;6.82;2.08;;;0.60;99.90;;;;;;4962021;28;20039;-58
2022/04/02 02:21:39;;;;;;;10.02;2.63;;;0.60;99.90;;;;;;4962966;28;20043;-57
2022/04/02 02:24:06;;;;;;;5.93;2.38;;;0.60;99.90;;;;;;4962819;29;20099;-57
2022/04/02 02:26:32;;;;;;;8.10;2.05;;;0.60;99.90;;;;;;4960498;29;20055;-56
2022/04/02 02:28:57;;;;;;;7.53;2.70;;;0.60;99.90;;;;;;4963286;28;20125;-57
2022/04/02 02:31:23;;;;;;;5.68;2.20;;;0.60;99.90;;;;;;4961845;28;20047;-57
2022/04/02 02:36:33;;;;;;;6.15;2.55;;;0.60;99.90;;;;;;4962229;29;20062;-57
2022/04/02 02:38:59;;;;;;;10.38;2.30;;;0.60;99.90;;;;;;4962065;29;20051;-57
2022/04/02 02:41:25;;;;;;;7.13;1.83;;;0.60;99.90;;;;;;4962741;28;20347;-57
2022/04/02 02:43:51;;;;;;;7.95;2.22;;;0.50;99.90;;;;;;4961590;28;20058;-58
2022/04/02 02:46:17;;;;;;;5.00;2.00;;;0.50;99.90;;;;;;4962846;28;20193;-57
2022/04/02 02:48:47;;;;;;;6.55;2.17;;;0.60;99.90;;;;;;4961609;29;20059;-57
2022/04/02 02:51:13;;;;;;;7.20;2.60;;;0.50;99.90;;;;;;4963033;28;20102;-58
2022/04/02 02:53:39;;;;;;;5.78;2.20;;;0.50;99.90;;;;;;4961992;28;20558;-57
2022/04/02 02:56:05;;;;;;;5.55;1.80;;;0.50;99.90;;;;;;4962257;28;20075;-57
2022/04/02 02:58:31;;;;;;;5.75;1.83;;;0.50;99.90;;;;;;4962208;28;20035;-57
2022/04/02 03:00:57;;;;;;;5.18;1.92;;;0.40;99.90;;;;;;4961208;29;20063;-57
2022/04/02 03:03:23;;;;;;;11.95;2.15;;;0.50;99.90;;;;;;4961282;28;20194;-58
2022/04/02 03:05:50;;;;;;;9.40;2.20;;;0.40;99.90;;;;;;4961282;28;20047;-57
2022/04/02 03:08:18;;;;;;;7.93;2.05;;;0.40;99.90;;;;;;4962474;28;20114;-57
2022/04/02 03:10:47;;;;;;;6.05;1.92;;;0.30;99.90;;;;;;4961565;28;20042;-57
2022/04/02 03:13:14;;;;;;;8.40;1.63;;;0.30;99.90;;;;;;4960395;29;20050;-57
2022/04/02 03:15:40;;;;;;;9.23;1.88;;;0.20;99.90;;;;;;4961850;28;20047;-57
2022/04/02 03:18:08;;;;;;;6.30;1.60;;;0.30;99.90;;;;;;4960852;29;20089;-58
2022/04/02 03:20:35;;;;;;;6.53;1.70;;;0.40;99.90;;;;;;4961013;29;20055;-58
2022/04/02 03:23:02;;;;;;;7.75;1.55;;;0.40;99.90;;;;;;4959658;29;20055;-58
2022/04/02 03:25:28;;;;;;;5.60;1.60;;;0.30;99.90;;;;;;4942816;29;20079;-57
2022/04/02 03:27:54;;;;;;;4.68;1.73;;;0.30;99.90;;;;;;4942091;29;20099;-57
2022/04/02 03:30:21;;;;;;;5.25;1.70;;;0.40;99.90;;;;;;4941954;29;20548;-57
2022/04/02 03:32:48;;;;;;;5.70;1.30;;;0.30;99.90;;;;;;4942111;29;20044;-57
2022/04/02 03:35:15;;;;;;;6.43;1.83;;;0.40;99.90;;;;;;4940335;29;20107;-57
2022/04/02 03:37:43;;;;;;;5.20;1.50;;;0.40;99.90;;;;;;4943027;29;20044;-56
2022/04/02 03:40:14;;;;;;;5.47;1.27;;;0.30;99.90;;;;;;4939782;29;20058;-57
2022/04/02 03:42:41;;;;;;;7.75;1.40;;;0.30;99.90;;;;;;4942809;29;20052;-58
2022/04/02 03:45:08;;;;;;;6.38;1.90;;;0.30;99.90;;;;;;4942016;29;20059;-57
2022/04/02 03:47:34;;;;;;;5.07;1.55;;;0.30;99.90;;;;;;4924158;29;20084;-57
2022/04/02 03:50:00;;;;;;;5.28;1.50;;;0.30;99.90;;;;;;4942285;29;20043;-57
2022/04/02 03:52:26;;;;;;;6.82;1.58;;;0.20;99.90;;;;;;4941431;29;20055;-57
2022/04/02 03:54:51;;;;;;;5.07;1.55;;;0.20;99.90;;;;;;4942651;29;20047;-57
2022/04/02 03:57:17;;;;;;;4.55;1.48;;;0.20;99.90;;;;;;4941168;29;20047;-57
2022/04/02 03:59:44;;;;;;;6.95;1.90;;;0.30;99.90;;;;;;4942407;29;20063;-57
2022/04/02 04:02:10;;;;;;;7.57;2.22;;;0.20;99.90;;;;;;4941593;29;20047;-57
2022/04/02 04:04:36;;;;;;;7.10;2.00;;;0.20;99.90;;;;;;4951363;29;20083;-57
2022/04/02 04:07:03;;;;;;;6.75;2.00;;;0.10;99.90;;;;;;4961223;29;20051;-57
2022/04/02 04:09:29;;;;;;;6.10;1.83;;;0.20;99.90;;;;;;4960210;28;20106;-57
2022/04/02 04:11:55;;;;;;;7.43;1.85;;;0.30;99.90;;;;;;4961497;28;20066;-58
2022/04/02 04:14:24;;;;;;;8.65;1.83;;;0.30;99.90;;;;;;4960100;29;20073;-57
2022/04/02 04:16:50;;;;;;;6.32;1.73;;;0.20;99.90;;;;;;4959855;29;20610;-58
2022/04/02 04:19:16;;;;;;;6.55;1.65;;;0.30;99.90;;;;;;4960597;28;20047;-57
2022/04/02 04:21:43;;;;;;;7.07;1.75;;;0.30;99.90;;;;;;4960589;28;20066;-57
2022/04/02 04:24:10;;;;;;;4.63;1.48;;;0.30;99.90;;;;;;4960834;28;20511;-57
2022/04/02 04:26:38;;;;;;;6.53;1.75;;;0.50;99.90;;;;;;4959899;28;20512;-57
2022/04/02 04:29:04;;;;;;;4.10;1.55;;;0.30;99.90;;;;;;4961453;28;20071;-57
2022/04/02 04:31:30;;;;;;;5.32;1.50;;;0.40;99.90;;;;;;4959891;28;20517;-57
2022/04/02 04:33:56;;;;;;;5.18;1.70;;;0.50;99.90;;;;;;4960115;29;20055;-58
2022/04/02 04:36:22;;;;;;;5.50;1.52;;;0.50;99.90;;;;;;4960214;28;20054;-58
2022/04/02 04:38:49;;;;;;;5.10;1.70;;;0.50;99.90;;;;;;4960464;28;20042;-57
2022/04/02 04:41:17;;;;;;;5.70;2.40;;;0.60;99.90;;;;;;4960910;28;20055;-59
2022/04/02 04:43:46;;;;;;;10.18;1.90;;;0.50;99.90;;;;;;4963013;28;20039;-58
2022/04/02 04:46:12;;;;;;;6.00;1.77;;;0.50;99.90;;;;;;4964937;28;20039;-57
2022/04/02 04:48:37;;;;;;;7.43;1.63;;;0.60;99.90;;;;;;4963928;29;20043;-57
2022/04/02 04:51:04;;;;;;;4.72;1.60;;;0.50;99.90;;;;;;4964727;29;20051;-57
2022/04/02 04:53:31;;;;;;;5.70;1.58;;;0.50;99.90;;;;;;4962725;29;20053;-57
2022/04/02 04:55:57;;;;;;;7.40;1.95;;;0.60;99.90;;;;;;4962816;29;20101;-58
2022/04/02 04:58:23;;;;;;;5.43;1.58;;;0.60;99.90;;;;;;4964556;28;20054;-57
2022/04/02 05:00:49;;;;;;;4.07;1.33;;;0.50;99.90;;;;;;4963645;28;20093;-57
2022/04/02 05:03:14;;;;;;;7.07;1.92;;;0.60;99.90;;;;;;4964915;28;20350;-57
2022/04/02 05:05:40;;;;;;;8.13;2.90;;;0.60;99.90;;;;;;4963353;29;20039;-58
2022/04/02 05:08:07;;;;;;;5.05;1.48;;;0.50;99.90;;;;;;4963439;29;20049;-57
2022/04/02 05:10:34;;;;;;;5.05;1.73;;;0.60;99.90;;;;;;4963898;28;20078;-57
2022/04/02 05:13:01;;;;;;;5.93;1.92;;;0.60;99.90;;;;;;4964167;28;20057;-57
2022/04/02 05:15:27;;;;;;;6.28;1.95;;;0.60;99.90;;;;;;4964166;28;20099;-57
2022/04/02 05:17:53;;;;;;;6.63;2.75;;;0.60;99.90;;;;;;4963159;28;20051;-58
2022/04/02 05:20:19;;;;;;;9.00;3.72;;;0.60;99.90;;;;;;4964561;28;20518;-57
2022/04/02 05:22:44;;;;;;;9.05;2.92;;;0.60;99.90;;;;;;4963239;29;20039;-57
2022/04/02 05:25:11;;;;;;;6.93;2.38;;;0.60;99.90;;;;;;4964331;28;20549;-57
2022/04/02 05:27:37;;;;;;;7.80;1.95;;;0.60;99.90;;;;;;4961876;28;20055;-58
2022/04/02 05:30:04;;;;;;;6.47;2.40;;;0.60;99.90;;;;;;4963791;29;20079;-57
2022/04/02 05:32:30;;;;;;;6.25;1.92;;;0.60;99.90;;;;;;4963702;28;20484;-56
2022/04/02 05:34:57;;;;;;;5.13;1.63;;;0.60;99.90;;;;;;4963147;29;20055;-57
2022/04/02 05:37:23;;;;;;;5.43;1.83;;;0.60;99.90;;;;;;4964203;28;20134;-57
2022/04/02 05:39:49;;;;;;;6.80;2.80;;;0.70;99.90;;;;;;4961197;29;20059;-57
2022/04/02 05:42:15;;;;;;;9.07;3.15;;;0.70;99.90;;;;;;4964087;28;20054;-57
2022/04/02 05:44:41;;;;;;;8.15;3.15;;;0.70;99.90;;;;;;4962807;29;20126;-57
2022/04/02 05:47:07;;;;;;;7.63;2.47;;;0.80;99.90;;;;;;4963287;28;20043;-57
2022/04/02 05:49:33;;;;;;;10.55;2.90;;;0.80;99.90;;;;;;4963426;29;20054;-57
2022/04/02 05:51:59;;;;;;;7.78;2.90;;;0.80;99.90;;;;;;4962751;29;20047;-57
2022/04/02 05:54:25;;;;;;;4.75;1.70;;;0.90;99.90;;;;;;4962804;28;20075;-57
2022/04/02 05:56:52;;;;;;;7.35;2.35;;;0.90;99.90;;;;;;4962427;29;20043;-57
2022/04/02 05:59:18;;;;;;;6.13;2.40;;;1.00;99.90;;;;;;4962357;28;20082;-57
2022/04/02 06:01:44;;;;;;;8.32;2.70;;;1.00;99.90;;;;;;4962496;28;20055;-57
2022/04/02 06:04:10;;;;;;;7.68;3.10;;;1.10;99.90;;;;;;4963464;29;20139;-58
2022/04/02 06:06:36;;;;;;;4.53;1.90;;;1.20;99.90;;;;;;4963010;29;20376;-57
2022/04/02 06:09:03;;;;;;;7.75;2.38;;;1.20;99.90;;;;;;4962791;28;20040;-58
2022/04/02 06:11:29;;;;;;;6.72;2.47;;;1.20;99.90;;;;;;4963564;28;20032;-57
2022/04/02 06:13:55;;;;;;;5.05;2.05;;;1.20;99.90;;;;;;4962468;29;20058;-57
2022/04/02 06:16:23;;;;;;;5.38;1.70;;;1.30;99.90;;;;;;4963059;28;20090;-58
2022/04/02 06:18:49;;;;;;;7.47;1.95;;;1.30;99.90;;;;;;4962300;28;20054;-56
2022/04/02 06:21:15;;;;;;;5.97;2.15;;;1.30;99.90;;;;;;4963123;28;20043;-57
2022/04/02 06:23:42;;;;;;;9.80;2.67;;;1.40;99.90;;;;;;4962702;29;20039;-58
2022/04/02 06:26:08;;;;;;;4.90;1.95;;;1.40;99.90;;;;;;4960963;29;20126;-56
2022/04/02 06:28:36;;;;;;;10.68;2.35;;;1.40;99.90;;;;;;4961786;29;20069;-57
2022/04/02 06:31:02;;;;;;;10.35;2.67;;;1.40;99.90;;;;;;4960344;29;20047;-57
2022/04/02 06:33:28;;;;;;;8.00;2.58;;;1.50;99.90;;;;;;4963347;29;20062;-58
2022/04/02 06:35:54;;;;;;;5.72;2.22;;;1.50;99.90;;;;;;4961836;29;20047;-57
2022/04/02 06:38:20;;;;;;;6.90;2.65;;;1.50;99.90;;;;;;4963044;28;20047;-56
2022/04/02 06:40:45;;;;;;;9.35;3.78;;;1.60;99.90;;;;;;4960618;29;20130;-57
2022/04/02 06:43:11;;;;;;;6.88;2.88;;;1.60;99.90;;;;;;4958661;28;20114;-57
2022/04/02 06:45:37;;;;;;;7.18;2.45;;;1.70;99.90;;;;;;4958886;28;20713;-57
2022/04/02 06:48:04;;;;;;;7.40;3.17;;;1.80;99.90;;;;;;4958007;29;20059;-57
2022/04/02 06:50:30;;;;;;;7.07;2.95;;;1.90;99.90;;;;;;4959016;28;20051;-56
2022/04/02 06:52:55;;;;;;;7.40;2.55;;;1.90;99.90;;;;;;4957947;29;20054;-57
2022/04/02 06:55:21;;;;;;;5.75;2.42;;;2.10;99.90;;;;;;4958691;28;20035;-57
2022/04/02 06:57:53;;;;;;;6.35;2.28;;;2.10;99.90;;;;;;4956882;29;20061;-58
2022/04/02 07:00:20;;;;;;;6.75;2.10;;;2.20;99.90;;;;;;4957857;28;20061;-57
2022/04/02 07:02:46;;;;;;;6.13;1.83;;;2.30;99.90;;;;;;4958613;28;20074;-57
2022/04/02 07:05:12;;;;;;;6.22;1.98;;;2.30;99.90;;;;;;4957483;28;20412;-58
2022/04/02 07:07:38;;;;;;;5.32;2.15;;;2.40;99.90;;;;;;4958555;29;20066;-57
2022/04/02 07:10:06;;;;;;;7.53;2.00;;;2.40;99.90;;;;;;4956225;29;20040;-57
2022/04/02 07:12:33;;;;;;;11.98;2.80;;;2.40;99.90;;;;;;4957052;29;20046;-57
2022/04/02 07:14:59;;;;;;;6.18;2.30;;;2.50;99.90;;;;;;4957847;28;20051;-57
2022/04/02 07:17:26;;;;;;;11.80;2.00;;;2.40;99.90;;;;;;4957813;28;20039;-57
2022/04/02 07:19:54;;;;;;;7.22;1.92;;;2.40;99.90;;;;;;4957893;29;20141;-57
2022/04/02 07:22:22;;;;;;;6.10;2.15;;;2.50;99.90;;;;;;4957177;28;20049;-57
2022/04/02 07:24:48;;;;;;;5.65;1.83;;;2.50;99.90;;;;;;4958584;28;20051;-57
2022/04/02 07:27:15;;;;;;;6.60;2.00;;;2.60;99.90;;;;;;4956888;28;20039;-58
2022/04/02 07:29:42;;;;;;;7.35;2.15;;;2.50;99.90;;;;;;4957848;28;20043;-57
2022/04/02 07:32:09;;;;;;;8.75;2.00;;;2.50;99.90;;;;;;4957505;28;20102;-57
2022/04/02 07:34:35;;;;;;;6.55;2.17;;;2.50;99.90;;;;;;4957582;29;20054;-57
2022/04/02 07:37:56;;;;;;;8.35;3.25;;;2.40;99.90;;;;;;4958458;29;20456;-58
2022/04/02 07:40:28;;;;;;;6.30;1.92;;;2.30;99.90;;;;;;4903421;28;20059;-57
2022/04/02 07:43:25;;;;;;;5.63;1.90;;;2.30;99.90;;;;;;4957004;28;20066;-57
2022/04/02 07:46:06;;;;;;;9.60;1.83;;;2.30;99.90;;;;;;4956304;29;20412;-57
2022/04/02 07:48:37;;;;;;;6.15;2.15;;;2.30;99.90;;;;;;4955425;29;20051;-58
2022/04/02 07:51:10;;;;;;;7.35;2.38;;;2.20;99.90;;;;;;4958042;28;20064;-57
2022/04/02 07:53:45;;;;;;;6.90;2.67;;;2.20;99.90;;;;;;4957061;28;20050;-57
2022/04/02 07:56:33;;;;;;;8.30;2.58;;;2.30;99.90;;;;;;4956847;28;20511;-58
2022/04/02 07:59:11;;;;;;;5.80;2.22;;;2.40;99.90;;;;;;4957190;29;20062;-57
2022/04/02 08:01:37;;;;;;;5.05;1.80;;;2.40;99.90;;;;;;4955173;28;20046;-58
2022/04/02 08:04:06;;;;;;;8.75;2.80;;;2.50;99.90;;;;;;4957598;29;20090;-58
2022/04/02 08:06:34;;;;;;;7.00;1.92;;;2.60;99.90;;;;;;4956654;28;20549;-57
2022/04/02 08:09:00;;;;;;;5.07;2.13;;;2.80;99.90;;;;;;4956629;28;20043;-56
2022/04/02 08:11:26;;;;;;;6.28;1.70;;;3.00;99.90;;;;;;4956318;29;20047;-57
2022/04/02 08:13:54;;;;;;;6.78;2.63;;;3.10;99.90;;;;;;4956275;28;20042;-58
2022/04/02 08:16:21;;;;;;;5.60;2.30;;;3.40;99.90;;;;;;4957701;28;20055;-57
2022/04/02 08:18:47;;;;;;;7.03;2.38;;;3.50;99.90;;;;;;4955749;28;20050;-57
2022/04/02 08:21:14;;;;;;;7.15;2.05;;;3.60;99.90;;;;;;4957252;28;20051;-57
2022/04/02 08:23:40;;;;;;;7.68;2.63;;;3.60;99.90;;;;;;4957067;28;20046;-57
2022/04/02 08:26:38;;;;;;;11.65;1.90;;;3.70;99.90;;;;;;4957035;28;20047;-58
2022/04/02 08:29:22;;;;;;;5.30;1.73;;;3.90;99.90;;;;;;4888583;28;20061;-57
2022/04/02 08:32:33;;;;;;;6.35;1.98;;;4.00;99.90;;;;;;4955997;29;20047;-58
2022/04/02 08:35:10;;;;;;;8.13;1.85;;;4.10;99.90;;;;;;4926192;28;20058;-58
2022/04/02 08:38:09;;;;;;;8.13;1.80;;;4.10;99.90;;;;;;4957136;28;20043;-57
2022/04/02 08:40:36;;;;;;;5.90;1.80;;;4.20;99.90;;;;;;4956161;28;20088;-57
2022/04/02 08:43:45;;;;;;;7.90;2.35;;;4.20;99.90;;;;;;4956335;29;20188;-57
2022/04/02 08:46:27;;;;;;;5.43;2.28;;;4.20;99.90;;;;;;4957306;28;20049;-57
2022/04/02 08:49:08;;;;;;;6.28;1.63;;;4.10;99.90;;;;;;4956397;29;20054;-57
2022/04/02 08:51:45;;;;;;;5.75;2.28;;;4.10;99.90;;;;;;4956515;28;20055;-58
2022/04/02 08:54:17;;;;;;;7.43;3.05;;;4.10;99.90;;;;;;4956878;28;20050;-57
2022/04/02 08:56:47;;;;;;;6.07;2.40;;;3.90;99.90;;;;;;4955833;28;20481;-61
2022/04/02 08:59:34;;;;;;;6.32;2.03;;;3.90;99.90;;;;;;4957286;28;20519;-58
2022/04/02 09:02:12;;;;;;;6.22;2.08;;;3.80;99.90;;;;;;4956132;28;20583;-58
2022/04/02 09:05:09;;;;;;;6.25;2.00;;;3.90;99.90;;;;;;4956097;29;20051;-58
2022/04/02 09:08:04;;;;;;;5.50;1.50;;;4.10;99.90;;;;;;4956895;28;20055;-58
2022/04/02 09:10:57;;;;;;;6.15;2.00;;;4.10;99.90;;;;;;4956132;28;20075;-57
2022/04/02 09:13:47;;;;;;;4.90;1.30;;;4.30;99.90;;;;;;4955920;29;20051;-57
2022/04/02 09:16:27;;;;;;;4.82;1.40;;;4.40;99.90;;;;;;4955477;29;20471;-58
2022/04/02 09:19:31;;;;;;;7.13;1.40;;;4.40;99.90;;;;;;4955451;28;20114;-57
2022/04/02 09:22:14;;;;;;;3.63;1.30;;;4.40;99.90;;;;;;4955911;28;20043;-58
2022/04/02 09:25:09;;;;;;;5.35;1.50;;;4.40;99.90;;;;;;4957076;28;20054;-57
2022/04/02 09:28:02;;;;;;;6.63;1.60;;;4.30;99.90;;;;;;4947870;29;20359;-57
2022/04/02 09:31:05;;;;;;;7.75;1.40;;;4.40;99.90;;;;;;4957854;28;20346;-57
2022/04/02 09:34:01;;;;;;;9.40;1.30;;;4.70;99.90;;;;;;4960677;29;20112;-57
2022/04/02 09:36:40;;;;;;;5.97;1.60;;;4.90;99.90;;;;;;4959742;29;20163;-57
2022/04/02 09:39:08;;;;;;;4.18;1.30;;;4.90;99.90;;;;;;4959483;28;20334;-58
2022/04/02 09:41:52;;;;;;;4.97;1.38;;;4.90;99.90;;;;;;4959802;29;20069;-58
2022/04/02 09:44:38;;;;;;;6.65;1.85;;;4.90;99.90;;;;;;4958794;29;20559;-58
2022/04/02 09:47:14;;;;;;;6.28;1.65;;;4.90;99.90;;;;;;4959426;28;20051;-57
2022/04/02 09:49:40;;;;;;;6.40;1.27;;;4.90;99.90;;;;;;4959997;28;20578;-57
2022/04/02 09:52:08;;;;;;;5.80;1.45;;;5.00;99.90;;;;;;4957567;29;20051;-57
2022/04/02 09:55:03;;;;;;;5.80;1.15;;;5.00;99.90;;;;;;4958158;29;20051;-58
2022/04/02 09:57:50;;;;;;;5.93;1.67;;;5.00;99.90;;;;;;4961216;28;20047;-57
2022/04/02 10:00:16;;;;;;;5.10;1.45;;;5.20;99.90;;;;;;4962771;29;20062;-58
2022/04/02 10:03:27;;;;;;;3.67;1.30;;;5.20;99.90;;;;;;4953839;29;20055;-57
2022/04/02 10:06:11;;;;;;;7.22;1.75;;;5.10;99.90;;;;;;4924202;29;20043;-57
2022/04/02 10:08:48;;;;;;;5.15;1.40;;;5.20;99.90;;;;;;4951866;29;20070;-57
2022/04/02 10:11:18;;;;;;;5.85;1.20;;;5.30;99.90;;;;;;4948826;29;20111;-57
2022/04/02 10:13:44;;;;;;;5.28;1.40;;;5.30;99.90;;;;;;4950301;29;20032;-57
2022/04/02 10:16:12;;;;;;;5.00;2.00;;;5.30;99.90;;;;;;4953567;29;20051;-58
2022/04/02 10:18:40;;;;;;;4.68;1.38;;;5.40;99.90;;;;;;4950685;29;20395;-58
2022/04/02 10:21:06;;;;;;;4.95;1.40;;;5.30;99.90;;;;;;4952868;29;20130;-57
2022/04/02 10:23:35;;;;;;;4.70;1.30;;;5.20;99.90;;;;;;4952105;29;20388;-57
2022/04/02 10:26:18;;;;;;;4.25;1.38;;;5.20;99.90;;;;;;4951500;29;20058;-58
2022/04/02 10:28:43;;;;;;;5.95;1.70;;;5.00;99.90;;;;;;4952443;29;20126;-57
2022/04/02 10:31:22;;;;;;;5.85;1.50;;;5.20;99.90;;;;;;4950999;29;20082;-56
2022/04/02 10:33:51;;;;;;;4.15;1.27;;;5.40;99.90;;;;;;4961510;29;20055;-58
2022/04/02 10:36:19;;;;;;;5.20;1.38;;;5.50;99.90;;;;;;4961917;29;20505;-58
2022/04/02 10:38:48;;;;;;;4.65;1.40;;;5.80;99.90;;;;;;4961555;28;20427;-57
2022/04/02 10:41:18;;;;;;;7.10;1.40;;;5.60;99.90;;;;;;4961845;28;20059;-57
2022/04/02 10:44:07;;;;;;;5.18;1.60;;;5.70;99.90;;;;;;4951727;29;20360;-58
2022/04/02 10:46:33;;;;;;;4.10;1.20;;;5.70;99.90;;;;;;4953964;29;20058;-58
2022/04/02 10:49:05;;;;;;;5.90;1.40;;;5.70;99.90;;;;;;4953475;29;20035;-58
2022/04/02 10:51:32;;;;;;;6.30;1.43;;;5.90;99.90;;;;;;4953859;28;20518;-59
2022/04/02 10:54:02;;;;;;;7.40;2.00;;;6.10;99.90;;;;;;4958713;28;20298;-57
2022/04/02 10:56:34;;;;;;;4.75;1.23;;;6.30;99.90;;;;;;4960188;29;20444;-57
2022/04/02 10:59:00;;;;;;;7.35;1.52;;;6.20;99.90;;;;;;4960150;29;20055;-57
2022/04/02 11:01:26;;;;;;;4.45;1.30;;;6.40;99.90;;;;;;4960539;28;20044;-58
2022/04/02 11:03:56;;;;;;;2.83;1.13;;;6.40;99.90;;;;;;4961180;29;20039;-54
2022/04/02 11:06:49;;;;;;;5.20;1.40;;;6.50;99.90;;;;;;4960428;28;20086;-57
2022/04/02 11:09:30;;;;;;;6.72;1.85;;;6.50;99.90;;;;;;4960619;28;20047;-58
2022/04/02 11:11:58;;;;;;;4.57;1.10;;;6.50;99.90;;;;;;4962000;29;20051;-56
2022/04/02 11:14:24;;;;;;;4.72;1.30;;;6.30;99.90;;;;;;4960819;28;20039;-57
2022/04/02 11:16:50;;;;;;;8.27;1.50;;;6.50;99.90;;;;;;4961517;28;20500;-57
2022/04/02 11:22:07;;;;;;;4.57;1.15;;;6.60;99.90;;;;;;4959297;29;20610;-58
2022/04/02 11:25:11;;;;;;;4.90;1.33;;;6.70;99.90;;;;;;4961877;28;20046;-57
2022/04/02 11:27:38;;;;;;;5.88;1.20;;;6.40;99.90;;;;;;4882311;29;20056;-57
2022/04/02 11:30:10;;;;;;;4.22;1.42;;;6.40;99.90;;;;;;4946711;28;20051;-57
2022/04/02 11:32:44;;;;;;;8.82;1.40;;;6.60;99.90;;;;;;4961815;28;20043;-57
2022/04/02 11:35:20;;;;;;;5.97;1.60;;;6.70;99.90;;;;;;4958990;29;20059;-57
2022/04/02 11:38:10;;;;;;;5.30;1.20;;;6.90;99.90;;;;;;4960219;29;20058;-57
2022/04/02 11:40:45;;;;;;;6.00;1.48;;;6.90;99.90;;;;;;4960541;29;20058;-58
2022/04/02 11:43:13;;;;;;;7.07;1.38;;;6.70;99.90;;;;;;4960743;28;20047;-58
2022/04/02 11:45:40;;;;;;;3.42;1.25;;;6.70;99.90;;;;;;4960864;28;20043;-58
2022/04/02 11:48:12;;;;;;;5.38;1.40;;;6.50;99.90;;;;;;4960450;28;20043;-57
2022/04/02 11:50:43;;;;;;;4.15;1.10;;;6.80;99.90;;;;;;4961463;28;20047;-57
2022/04/02 11:53:13;;;;;;;6.45;1.35;;;6.70;99.90;;;;;;4959694;28;20476;-57
2022/04/02 11:55:41;;;;;;;4.95;1.60;;;6.50;99.90;;;;;;4960733;28;20043;-57
2022/04/02 11:58:13;;;;;;;5.15;1.50;;;6.30;99.90;;;;;;4960942;28;20039;-57
2022/04/02 12:00:44;;;;;;;;;;;6.30;99.90;;;;;;4960424;29;20069;-58
2022/04/02 12:03:29;;;;;;;5.45;1.52;;;6.30;99.90;;;;;;4961332;28;19922;-57
2022/04/02 12:05:54;;;;;;;3.70;1.30;;;6.40;99.50;;;;;;4941026;29;20044;-57
2022/04/02 12:08:32;;;;;;;4.28;1.60;;;6.40;99.90;;;;;;4941674;29;20130;-57
2022/04/02 12:11:00;;;;;;;6.80;1.48;;;6.30;99.90;;;;;;4940519;29;20040;-57
2022/04/02 12:13:26;;;;;;;6.25;1.67;;;6.30;99.90;;;;;;4940982;29;20066;-57
2022/04/02 12:16:08;;;;;;;5.00;1.30;;;6.20;99.90;;;;;;4941954;29;20377;-57
2022/04/02 12:18:50;;;;;;;5.10;1.20;;;6.20;99.90;;;;;;4940732;29;20604;-57
2022/04/02 12:21:16;;;;;;;8.07;1.50;;;6.20;99.90;;;;;;4941310;29;20532;-57
2022/04/02 12:23:56;;;;;;;5.65;1.30;;;6.30;99.90;;;;;;4945454;29;20039;-57
2022/04/02 12:26:25;;;;;;;5.15;1.10;;;6.20;99.90;;;;;;4955922;28;20062;-57
2022/04/02 12:28:56;;;;;;;4.47;1.30;;;6.40;99.90;;;;;;4951516;29;20040;-57
2022/04/02 12:31:23;;;;;;;6.47;1.45;;;6.40;99.90;;;;;;4941229;29;20051;-56
2022/04/02 12:33:53;;;;;;;9.40;1.67;;;6.30;99.90;;;;;;4939411;29;20262;-57
2022/04/02 12:36:32;;;;;;;3.38;1.30;;;6.40;99.90;;;;;;4940327;29;20075;-57
2022/04/02 12:39:04;;;;;;;4.53;1.38;;;6.40;99.50;;;;;;4940780;29;20038;-58
2022/04/02 12:41:30;;;;;;;5.05;1.40;;;6.60;99.90;;;;;;4941362;29;20056;-58
2022/04/02 12:44:01;;;;;;;2.75;1.08;;;6.40;99.00;;;;;;4939904;29;20047;-59
2022/04/02 12:46:28;;;;;;;5.28;1.40;;;6.40;99.50;;;;;;4941662;29;20063;-58
2022/04/02 12:48:55;;;;;;;5.78;1.38;;;6.20;98.20;;;;;;4940754;29;20055;-57
2022/04/02 12:51:22;;;;;;;4.25;1.20;;;6.50;99.20;;;;;;4941234;29;20602;-58
2022/04/02 12:53:52;;;;;;;4.82;1.58;;;6.90;99.50;;;;;;4941466;29;20048;-57
2022/04/02 12:56:44;;;;;;;6.82;1.30;;;6.80;98.10;;;;;;4940355;29;20051;-57
2022/04/02 12:59:19;;;;;;;6.03;1.30;;;6.60;98.60;;;;;;4938208;29;20052;-57
2022/04/02 13:01:46;;;;;;;5.13;1.20;;;6.70;98.60;;;;;;4940546;29;20099;-57
2022/04/02 13:04:13;;;;;;;4.80;1.30;;;6.70;97.60;;;;;;4949778;29;20087;-57
2022/04/02 13:06:44;;;;;;;4.70;1.35;;;6.70;97.40;;;;;;4964302;28;20426;-57
2022/04/02 13:09:21;;;;;;;6.60;1.65;;;6.60;98.20;;;;;;4963176;29;20055;-57
2022/04/02 13:11:53;;;;;;;4.05;1.30;;;6.80;97.10;;;;;;4964276;28;20079;-57
2022/04/02 13:14:19;;;;;;;3.95;1.45;;;6.90;96.70;;;;;;4963147;29;20047;-55
2022/04/02 13:16:48;;;;;;;4.45;1.58;;;6.90;97.40;;;;;;4962833;29;20078;-57
2022/04/02 13:22:15;;;;;;;5.32;1.70;;;6.90;95.70;;;;;;4962942;29;20669;-57
2022/04/02 13:24:59;;;;;;;6.15;1.88;;;7.10;96.90;;;;;;4964297;28;20416;-57